Time;durP1;ratioP1;P1;durP2;ratioP2;P2;SDS_P1;SDS_P2;PMS_P1;PMS_P2;Temp;Humidity;BMP_temperature;BMP_pressure;BME280_temperature;BME280_humidity;BME280_pressure;Samples;Min_cycle;Max_cycle;Signal;HPM_P1;HPM_P2
2023/08/03 00:01:47;;;;;;;1.88;0.32;;;;;;;19.90;89.99;98331.31;8328203;28;20041;-61
2023/08/03 00:05:47;;;;;;;0.75;0.20;;;;;;;19.94;89.53;98337.16;8330255;28;20049;-61
2023/08/03 00:09:47;;;;;;;1.25;0.40;;;;;;;20.00;88.75;98338.88;8330165;28;20053;-61
2023/08/03 00:13:48;;;;;;;1.35;0.28;;;;;;;20.07;88.12;98336.78;8328606;28;20495;-61
2023/08/03 00:17:48;;;;;;;1.38;0.20;;;;;;;20.07;87.94;98325.78;8323791;28;20041;-60
2023/08/03 00:21:49;;;;;;;0.70;0.10;;;;;;;20.10;87.04;98342.56;8308156;28;20037;-62
2023/08/03 00:25:49;;;;;;;0.20;0.20;;;;;;;20.07;87.30;98309.34;8305277;28;20590;-61
2023/08/03 00:29:50;;;;;;;0.28;0.10;;;;;;;20.10;87.14;98322.53;8306762;28;20045;-61
2023/08/03 00:33:50;;;;;;;2.53;0.30;;;;;;;20.11;86.66;98343.41;8302599;28;20199;-61
2023/08/03 00:37:53;;;;;;;0.60;0.20;;;;;;;20.15;86.01;98339.09;8305375;28;20046;-62
2023/08/03 00:41:55;;;;;;;2.35;0.30;;;;;;;20.24;84.94;98343.03;8306896;28;20557;-61
2023/08/03 00:45:56;;;;;;;3.03;0.70;;;;;;;20.28;84.18;98338.72;8305124;28;20397;-61
2023/08/03 00:49:56;;;;;;;0.82;0.40;;;;;;;20.26;84.21;98347.22;8305387;28;20108;-61
2023/08/03 00:53:56;;;;;;;1.85;0.30;;;;;;;20.30;84.21;98356.59;8305498;28;20053;-61
2023/08/03 00:57:57;;;;;;;2.40;0.85;;;;;;;20.28;84.61;98368.91;8304776;28;20053;-61
2023/08/03 01:01:57;;;;;;;0.50;0.30;;;;;;;20.25;84.57;98366.69;8305006;28;20053;-61
2023/08/03 01:05:58;;;;;;;0.55;0.30;;;;;;;20.14;87.03;98364.88;8305062;28;20463;-61
2023/08/03 01:09:59;;;;;;;1.08;0.30;;;;;;;20.03;86.59;98376.78;8307799;28;20056;-61
2023/08/03 01:14:00;;;;;;;0.60;0.28;;;;;;;19.91;87.42;98384.28;8305921;28;20839;-61
2023/08/03 01:18:01;;;;;;;1.85;0.30;;;;;;;19.86;87.76;98378.72;8306485;28;20416;-61
2023/08/03 01:22:02;;;;;;;2.20;0.20;;;;;;;19.80;88.22;98382.44;8306166;28;20128;-60
2023/08/03 01:26:02;;;;;;;2.22;0.30;;;;;;;19.70;88.95;98387.78;8303923;28;20479;-59
2023/08/03 01:30:04;;;;;;;1.10;0.30;;;;;;;19.60;90.25;98390.38;8301568;28;20458;-60
2023/08/03 01:34:05;;;;;;;2.80;0.30;;;;;;;19.54;91.33;98407.81;8309235;28;20052;-60
2023/08/03 01:38:05;;;;;;;4.85;0.38;;;;;;;19.40;93.39;98424.56;8304425;28;20269;-60
2023/08/03 01:42:06;;;;;;;2.63;0.40;;;;;;;19.07;100.00;98429.16;8304689;28;20081;-60
2023/08/03 01:46:06;;;;;;;1.88;0.50;;;;;;;18.63;100.00;98428.00;8303585;28;20034;-60
2023/08/03 01:50:07;;;;;;;3.92;0.43;;;;;;;18.45;100.00;98441.84;8303543;28;20123;-60
2023/08/03 01:54:11;;;;;;;2.28;0.35;;;;;;;18.42;100.00;98436.06;8303859;28;20593;-60
2023/08/03 01:58:13;;;;;;;1.63;0.30;;;;;;;18.44;100.00;98434.72;8303200;28;20103;-60
2023/08/03 02:02:14;;;;;;;3.20;0.45;;;;;;;18.58;100.00;98416.97;8303355;28;20049;-59
2023/08/03 02:06:15;;;;;;;0.50;0.40;;;;;;;18.65;100.00;98439.56;8307111;28;20407;-59
2023/08/03 02:10:15;;;;;;;0.73;0.52;;;;;;;18.69;100.00;98442.63;8308072;28;20061;-59
2023/08/03 02:14:16;;;;;;;1.52;0.50;;;;;;;18.69;100.00;98448.94;8308068;28;20052;-59
2023/08/03 02:18:16;;;;;;;1.80;0.50;;;;;;;18.65;100.00;98469.66;8308725;28;20044;-59
2023/08/03 02:22:17;;;;;;;1.15;0.40;;;;;;;18.76;100.00;98466.03;8307005;28;20061;-59
2023/08/03 02:26:17;;;;;;;0.40;0.30;;;;;;;18.74;100.00;98481.91;8308755;28;20044;-60
2023/08/03 02:30:18;;;;;;;1.25;0.35;;;;;;;18.74;100.00;98487.38;8305130;28;20510;-61
2023/08/03 02:34:18;;;;;;;3.53;0.22;;;;;;;18.70;100.00;98494.38;8305890;28;20079;-61
2023/08/03 02:38:19;;;;;;;0.68;0.30;;;;;;;18.75;100.00;98497.25;8306932;28;20057;-61
2023/08/03 02:42:22;;;;;;;1.08;0.30;;;;;;;18.77;100.00;98494.25;8305548;28;20406;-61
2023/08/03 02:46:22;;;;;;;1.50;0.40;;;;;;;18.81;100.00;98499.00;8305857;28;20038;-61
2023/08/03 02:50:23;;;;;;;0.63;0.20;;;;;;;18.83;100.00;98510.56;8306774;28;20038;-61
2023/08/03 02:54:28;;;;;;;0.38;0.10;;;;;;;18.88;100.00;98513.38;8305088;28;20129;-61
2023/08/03 02:58:31;;;;;;;0.43;0.25;;;;;;;18.95;100.00;98516.84;8307974;28;20116;-62
2023/08/03 03:02:34;;;;;;;0.45;0.20;;;;;;;18.99;100.00;98509.78;8304115;28;20038;-61
2023/08/03 03:06:35;;;;;;;2.30;0.20;;;;;;;19.04;100.00;98518.13;8304890;28;20041;-61
2023/08/03 03:10:36;;;;;;;2.17;0.25;;;;;;;19.08;100.00;98513.81;8308004;28;20033;-59
2023/08/03 03:14:36;;;;;;;0.93;0.30;;;;;;;19.06;100.00;98517.88;8304579;28;20037;-59
2023/08/03 03:18:37;;;;;;;1.67;0.20;;;;;;;18.91;100.00;98523.84;8307743;28;20029;-59
2023/08/03 03:22:37;;;;;;;3.78;0.13;;;;;;;18.73;100.00;98526.75;8307494;28;20346;-63
2023/08/03 03:26:38;;;;;;;0.68;0.30;;;;;;;18.68;100.00;98521.19;8319969;28;20068;-62
2023/08/03 03:30:39;;;;;;;0.30;0.20;;;;;;;18.83;100.00;98537.09;8304029;28;20423;-59
2023/08/03 03:34:39;;;;;;;0.25;0.20;;;;;;;18.84;100.00;98528.66;8305908;28;20092;-60
2023/08/03 03:38:43;;;;;;;0.20;0.10;;;;;;;18.89;100.00;98536.97;8307466;28;20390;-59
2023/08/03 03:42:43;;;;;;;0.10;0.10;;;;;;;18.89;100.00;98547.94;8304642;28;20507;-59
2023/08/03 03:46:44;;;;;;;0.20;0.20;;;;;;;18.94;100.00;98552.69;8305445;28;20041;-58
2023/08/03 03:50:45;;;;;;;0.95;0.10;;;;;;;18.82;100.00;98558.16;8305243;28;20112;-58
2023/08/03 03:54:45;;;;;;;1.08;0.10;;;;;;;18.72;100.00;98555.22;8308226;28;20120;-58
2023/08/03 03:58:47;;;;;;;0.20;0.15;;;;;;;18.71;100.00;98545.34;8310377;28;20037;-58
2023/08/03 04:02:49;;;;;;;0.95;0.20;;;;;;;18.68;100.00;98555.94;8312610;28;20053;-58
2023/08/03 04:06:53;;;;;;;0.63;0.10;;;;;;;18.69;100.00;98563.91;8305097;28;20050;-60
2023/08/03 04:10:54;;;;;;;1.23;0.10;;;;;;;18.75;100.00;98565.69;8318033;28;20046;-63
2023/08/03 04:14:55;;;;;;;0.00;0.00;;;;;;;18.67;100.00;98571.50;8310435;28;20046;-62
2023/08/03 04:18:55;;;;;;;0.60;0.10;;;;;;;18.69;100.00;98569.38;8306698;28;20070;-62
2023/08/03 04:22:56;;;;;;;0.63;0.30;;;;;;;18.68;100.00;98567.72;8320123;28;20040;-62
2023/08/03 04:26:56;;;;;;;0.03;0.03;;;;;;;18.63;100.00;98569.53;8321674;28;20050;-62
2023/08/03 04:30:58;;;;;;;1.20;0.20;;;;;;;18.69;100.00;98574.84;8306810;28;20531;-62
2023/08/03 04:34:59;;;;;;;0.10;0.00;;;;;;;18.79;100.00;98585.22;8305010;28;20143;-62
2023/08/03 04:39:01;;;;;;;0.17;0.03;;;;;;;18.81;100.00;98583.88;8308083;28;20503;-63
2023/08/03 04:43:03;;;;;;;1.38;0.10;;;;;;;18.84;99.62;98583.41;8311425;28;20466;-62
2023/08/03 04:47:04;;;;;;;0.05;0.03;;;;;;;18.79;100.00;98590.69;8311283;28;20064;-63
2023/08/03 04:51:05;;;;;;;0.52;0.10;;;;;;;18.76;100.00;98591.97;8309097;28;20049;-59
2023/08/03 04:55:05;;;;;;;0.50;0.10;;;;;;;18.75;100.00;98594.94;8308693;28;20072;-59
2023/08/03 04:59:06;;;;;;;1.17;0.10;;;;;;;18.74;100.00;98602.34;8310711;28;20133;-59
2023/08/03 05:03:07;;;;;;;0.22;0.17;;;;;;;18.87;99.15;98615.78;8331015;28;20045;-59
2023/08/03 05:07:08;;;;;;;1.15;0.08;;;;;;;18.96;98.69;98608.03;8308017;28;20120;-59
2023/08/03 05:11:08;;;;;;;0.00;0.00;;;;;;;19.12;97.18;98605.38;8309700;28;20041;-59
2023/08/03 05:15:12;;;;;;;0.40;0.00;;;;;;;19.17;97.06;98615.63;8309152;28;20125;-59
2023/08/03 05:19:17;;;;;;;1.08;0.00;;;;;;;19.22;97.50;98618.47;8301767;28;20041;-59
2023/08/03 05:23:19;;;;;;;0.45;0.10;;;;;;;19.22;96.41;98619.28;8305356;28;20040;-59
2023/08/03 05:27:19;;;;;;;0.25;0.00;;;;;;;19.30;95.94;98616.22;8305606;28;20041;-59
2023/08/03 05:31:23;;;;;;;0.28;0.00;;;;;;;19.27;96.34;98616.69;8304199;28;20038;-59
2023/08/03 05:35:23;;;;;;;0.25;0.10;;;;;;;19.27;95.66;98605.72;8306340;28;20034;-59
2023/08/03 05:39:26;;;;;;;0.17;0.10;;;;;;;19.38;94.22;98624.06;8312301;28;20041;-59
2023/08/03 05:43:27;;;;;;;0.28;0.10;;;;;;;19.59;93.46;98597.03;8308455;28;20037;-59
2023/08/03 05:47:28;;;;;;;0.10;0.10;;;;;;;19.78;92.01;98629.50;8307726;28;20099;-59
2023/08/03 05:51:28;;;;;;;1.55;0.20;;;;;;;19.84;90.53;98633.16;8304588;28;20041;-59
2023/08/03 05:55:29;;;;;;;1.00;0.20;;;;;;;19.80;90.47;98642.97;8307186;28;20065;-59
2023/08/03 05:59:29;;;;;;;1.33;0.20;;;;;;;19.79;90.40;98647.59;8303623;28;20451;-59
2023/08/03 06:03:33;;;;;;;0.15;0.15;;;;;;;19.83;90.71;98642.47;8305317;28;20060;-61
2023/08/03 06:07:34;;;;;;;2.42;0.20;;;;;;;19.87;89.73;98632.66;8304027;28;20045;-61
2023/08/03 06:11:35;;;;;;;0.35;0.20;;;;;;;19.82;90.76;98663.56;8305011;28;20403;-61
2023/08/03 06:15:35;;;;;;;0.30;0.22;;;;;;;19.87;89.88;98673.81;8302666;28;20060;-61
2023/08/03 06:19:36;;;;;;;0.30;0.10;;;;;;;19.86;90.37;98677.66;8302442;28;20041;-61
2023/08/03 06:23:39;;;;;;;0.43;0.10;;;;;;;19.89;90.00;98679.91;8305176;28;20046;-61
2023/08/03 06:27:40;;;;;;;0.80;0.20;;;;;;;19.94;89.94;98688.22;8304007;28;20042;-61
2023/08/03 06:31:41;;;;;;;1.20;0.30;;;;;;;20.03;89.02;98686.78;8301573;28;20104;-61
2023/08/03 06:35:45;;;;;;;0.35;0.20;;;;;;;19.95;91.66;98696.22;8303805;28;20041;-61
2023/08/03 06:39:49;;;;;;;0.10;0.10;;;;;;;19.86;90.40;98702.31;8304122;28;20087;-61
2023/08/03 06:43:51;;;;;;;0.55;0.30;;;;;;;19.82;90.79;98701.16;8302319;28;20042;-61
2023/08/03 06:47:52;;;;;;;1.02;0.10;;;;;;;19.81;91.29;98704.97;8302552;28;20068;-61
2023/08/03 06:51:53;;;;;;;0.63;0.30;;;;;;;19.77;91.01;98714.75;8305964;28;20522;-61
2023/08/03 06:55:53;;;;;;;0.28;0.10;;;;;;;19.80;91.03;98722.50;8303382;28;20495;-61
2023/08/03 06:59:55;;;;;;;0.77;0.30;;;;;;;19.79;92.83;98723.59;8302744;28;20148;-60
2023/08/03 07:03:55;;;;;;;1.15;0.30;;;;;;;19.66;94.64;98729.31;8301001;28;20059;-61
2023/08/03 07:07:56;;;;;;;2.63;0.50;;;;;;;19.56;95.16;98740.06;8302879;28;20048;-61
2023/08/03 07:11:56;;;;;;;0.52;0.30;;;;;;;19.54;95.73;98736.75;8302682;28;20180;-58
2023/08/03 07:16:05;;;;;;;0.85;0.20;;;;;;;19.59;95.04;98758.78;8302130;28;20050;-58
2023/08/03 07:20:08;;;;;;;1.27;0.40;;;;;;;19.72;94.13;98745.66;8302532;28;20052;-59
2023/08/03 07:24:09;;;;;;;0.35;0.35;;;;;;;19.90;94.80;98763.84;8302917;28;20443;-58
2023/08/03 07:28:09;;;;;;;0.22;0.20;;;;;;;19.86;95.17;98770.91;8304264;28;20071;-58
2023/08/03 07:32:12;;;;;;;0.32;0.28;;;;;;;19.92;93.65;98772.66;8307519;28;20045;-61
2023/08/03 07:36:17;;;;;;;1.52;0.30;;;;;;;20.02;92.57;98775.63;8307648;28;20391;-61
2023/08/03 07:40:17;;;;;;;0.80;0.30;;;;;;;20.28;91.69;98783.31;8309260;28;20402;-61
2023/08/03 07:44:18;;;;;;;0.93;0.30;;;;;;;20.42;89.72;98799.25;8309356;28;20040;-60
2023/08/03 07:48:19;;;;;;;0.60;0.20;;;;;;;20.41;90.23;98807.72;8310306;28;20041;-61
2023/08/03 07:52:19;;;;;;;1.55;0.20;;;;;;;20.38;89.25;98808.22;8307059;28;20038;-58
2023/08/03 07:56:21;;;;;;;0.10;0.10;;;;;;;20.31;89.50;98824.00;8306671;28;20038;-57
2023/08/03 08:00:22;;;;;;;2.20;0.28;;;;;;;20.41;90.32;98799.50;8306231;28;20030;-59
2023/08/03 08:04:22;;;;;;;0.55;0.20;;;;;;;20.54;88.92;98823.91;8290361;28;20045;-58
2023/08/03 08:08:23;;;;;;;0.25;0.10;;;;;;;20.71;88.89;98830.28;8307715;28;20124;-60
2023/08/03 08:12:23;;;;;;;0.43;0.25;;;;;;;20.73;87.68;98841.81;8303985;28;20091;-59
2023/08/03 08:16:24;;;;;;;6.97;0.50;;;;;;;20.78;89.10;98837.28;8307595;28;20110;-61
2023/08/03 08:20:24;;;;;;;0.75;0.40;;;;;;;20.84;87.44;98849.19;8287340;28;20041;-59
2023/08/03 08:24:25;;;;;;;0.98;0.20;;;;;;;20.91;86.88;98860.84;8305836;28;20550;-60
2023/08/03 08:28:26;;;;;;;1.23;0.20;;;;;;;20.78;87.46;98861.16;8305960;28;20045;-59
2023/08/03 08:32:27;;;;;;;2.15;0.20;;;;;;;20.79;89.69;98871.06;8303754;28;20120;-60
2023/08/03 08:36:27;;;;;;;0.20;0.20;;;;;;;20.68;89.29;98871.97;8303314;28;20034;-60
2023/08/03 08:40:28;;;;;;;2.35;0.35;;;;;;;20.81;90.08;98877.16;8304464;28;20042;-60
2023/08/03 08:44:29;;;;;;;1.63;0.10;;;;;;;20.79;88.49;98879.31;8306054;28;20043;-59
2023/08/03 08:48:29;;;;;;;0.40;0.20;;;;;;;20.68;90.95;98899.44;8320348;28;20403;-60
2023/08/03 08:52:30;;;;;;;0.90;0.35;;;;;;;20.29;92.89;98897.50;8305547;28;20099;-60
2023/08/03 08:56:31;;;;;;;2.88;0.30;;;;;;;20.11;97.52;98919.56;8305499;28;20044;-60
2023/08/03 09:00:40;;;;;;;1.08;0.30;;;;;;;19.81;100.00;98918.88;8302149;28;20049;-59
2023/08/03 09:04:42;;;;;;;0.90;0.43;;;;;;;19.52;100.00;98933.53;8303835;28;20492;-60
2023/08/03 09:08:58;;;;;;;0.20;0.20;;;;;;;19.38;100.00;98941.97;8303708;28;20041;-60
2023/08/03 09:12:59;;;;;;;0.63;0.20;;;;;;;19.33;100.00;98957.44;8302683;28;20128;-60
2023/08/03 09:17:16;;;;;;;2.28;0.52;;;;;;;19.60;100.00;98944.97;8303304;28;20440;-60
2023/08/03 09:21:19;;;;;;;0.47;0.30;;;;;;;19.66;100.00;98951.41;8303141;28;20073;-60
2023/08/03 09:25:20;;;;;;;1.83;0.45;;;;;;;19.69;100.00;98959.16;8306837;28;20041;-59
2023/08/03 09:29:20;;;;;;;2.20;0.40;;;;;;;19.52;100.00;98981.00;8302696;28;20049;-60
2023/08/03 09:33:21;;;;;;;0.65;0.30;;;;;;;19.21;100.00;98982.03;8301521;28;20033;-59
2023/08/03 09:37:33;;;;;;;2.03;0.22;;;;;;;19.48;100.00;98979.75;8303038;28;20060;-60
2023/08/03 09:41:36;;;;;;;0.40;0.40;;;;;;;19.98;100.00;98980.19;8304236;28;20152;-59
2023/08/03 09:45:37;;;;;;;0.60;0.40;;;;;;;20.52;100.00;98985.31;8303980;28;20045;-60
2023/08/03 09:49:37;;;;;;;0.85;0.20;;;;;;;21.39;98.54;98979.41;8300095;28;20129;-60
2023/08/03 09:53:41;;;;;;;334.98;43.55;;;;;;;22.00;94.25;98984.06;8302931;28;20038;-62
2023/08/03 09:57:47;;;;;;;2.78;0.30;;;;;;;22.64;87.62;98981.47;8303276;28;20037;-61
2023/08/03 10:01:49;;;;;;;2.15;0.40;;;;;;;23.25;84.36;98996.84;8302670;28;20089;-61
2023/08/03 10:05:55;;;;;;;3.80;0.40;;;;;;;22.97;83.75;98995.09;8304304;28;20041;-62
2023/08/03 10:09:57;;;;;;;2.05;0.30;;;;;;;23.10;80.80;99005.75;8301895;28;20496;-61
2023/08/03 10:14:02;;;;;;;1.73;0.40;;;;;;;23.34;79.26;99013.75;8303102;28;20399;-61
2023/08/03 10:18:03;;;;;;;2.97;0.60;;;;;;;22.77;80.58;99016.91;8302976;28;20052;-61
2023/08/03 10:22:06;;;;;;;1.88;0.40;;;;;;;22.91;81.55;99025.63;8301321;28;20080;-61
2023/08/03 10:26:07;;;;;;;2.08;0.60;;;;;;;22.81;80.87;99029.09;8302764;28;20068;-61
2023/08/03 10:30:08;;;;;;;2.17;0.50;;;;;;;24.80;73.47;99024.97;8298105;28;20046;-61
2023/08/03 10:34:09;;;;;;;2.80;0.57;;;;;;;25.85;69.75;99038.34;8302779;28;20052;-61
2023/08/03 10:38:18;;;;;;;2.35;0.40;;;;;;;25.24;69.75;99037.34;8302931;28;20095;-61
2023/08/03 10:42:23;;;;;;;1.73;0.45;;;;;;;24.75;72.23;99052.59;8323757;28;20077;-61
2023/08/03 10:46:35;;;;;;;2.15;0.35;;;;;;;24.57;71.68;99050.22;8303024;28;20510;-61
2023/08/03 10:50:57;;;;;;;4.43;0.50;;;;;;;23.68;75.62;99054.69;8299682;28;20038;-61
2023/08/03 10:54:59;;;;;;;3.92;0.70;;;;;;;23.52;74.75;99068.59;8301646;28;20097;-61
2023/08/03 10:59:03;;;;;;;2.78;0.70;;;;;;;24.31;73.92;99053.91;8302689;28;20656;-61
2023/08/03 11:03:03;;;;;;;4.15;0.73;;;;;;;25.64;69.20;99050.50;8302508;28;20076;-62
2023/08/03 11:07:04;;;;;;;1.83;0.75;;;;;;;25.51;70.15;99067.63;8302772;28;20041;-63
2023/08/03 11:11:11;;;;;;;3.08;0.70;;;;;;;24.68;70.67;99076.88;8302258;28;20041;-63
2023/08/03 11:15:16;;;;;;;4.65;0.98;;;;;;;24.12;72.58;99063.72;8303890;28;20049;-63
2023/08/03 11:19:16;;;;;;;1.52;0.50;;;;;;;24.89;72.83;99075.91;8301659;28;20037;-63
2023/08/03 11:23:17;;;;;;;1.15;0.47;;;;;;;25.36;69.47;99076.69;8304049;28;20099;-63
2023/08/03 11:27:18;;;;;;;1013.83;131.10;;;;;;;25.42;70.01;99085.84;8303719;28;20124;-63
2023/08/03 11:31:21;;;;;;;2.58;0.95;;;;;;;26.09;67.40;99076.34;8300399;28;20068;-63
2023/08/03 11:35:22;;;;;;;3.28;0.65;;;;;;;27.04;64.23;99082.94;8303915;28;20033;-64
2023/08/03 11:39:22;;;;;;;3.35;0.85;;;;;;;27.65;61.40;99089.91;8303521;28;20526;-64
2023/08/03 11:43:23;;;;;;;5.45;0.90;;;;;;;25.21;67.66;99107.03;8303864;28;20469;-64
2023/08/03 11:47:24;;;;;;;95.22;6.97;;;;;;;24.18;72.12;99102.13;8299371;28;20037;-61
2023/08/03 11:51:39;;;;;;;4.68;1.30;;;;;;;23.53;73.84;99126.28;8300952;28;20068;-63
2023/08/03 11:55:40;;;;;;;4.25;0.90;;;;;;;22.98;78.87;99134.63;8301097;28;20044;-63
2023/08/03 11:59:41;;;;;;;4.50;1.10;;;;;;;22.52;82.15;99135.03;8302961;28;20034;-63
2023/08/03 12:03:41;;;;;;;5.78;1.30;;;;;;;22.10;89.84;99136.47;8299404;28;20056;-63
2023/08/03 12:07:42;;;;;;;4.35;0.80;;;;;;;23.11;83.36;99134.25;8303072;28;20049;-64
2023/08/03 12:11:42;;;;;;;3.03;1.00;;;;;;;23.37;80.98;99137.38;8302665;28;20033;-63
2023/08/03 12:15:43;;;;;;;2.83;0.70;;;;;;;23.37;80.28;99137.38;8304491;28;20068;-63
2023/08/03 12:19:43;;;;;;;5.03;1.00;;;;;;;23.55;77.04;99146.19;8305831;28;20073;-63
2023/08/03 12:23:44;;;;;;;4.40;0.70;;;;;;;23.67;77.59;99160.69;8310720;28;20133;-62
2023/08/03 12:27:44;;;;;;;2.92;0.75;;;;;;;23.74;77.17;99160.47;8309223;28;20046;-63
2023/08/03 12:31:45;;;;;;;3.03;0.63;;;;;;;23.70;74.16;99153.78;8306693;28;20083;-63
2023/08/03 12:35:45;;;;;;;22.33;2.58;;;;;;;23.82;74.01;99168.28;8279090;28;20117;-63
2023/08/03 12:39:45;;;;;;;6.45;0.73;;;;;;;23.85;74.50;99174.09;8277919;28;20060;-63
2023/08/03 12:43:46;;;;;;;4.97;1.00;;;;;;;23.81;72.92;99172.13;8274905;28;20068;-63
2023/08/03 12:47:47;;;;;;;26.00;3.55;;;;;;;23.79;73.28;99188.13;8275607;28;20073;-63
2023/08/03 12:51:47;;;;;;;0.85;0.50;;;;;;;23.51;74.64;99193.84;8295458;28;20137;-63
2023/08/03 12:55:48;;;;;;;828.42;109.10;;;;;;;23.18;76.23;99197.50;8309493;28;20050;-63
2023/08/03 12:59:48;;;;;;;226.88;27.90;;;;;;;23.20;74.83;99201.66;8309309;28;20183;-62
2023/08/03 13:03:49;;;;;;;2.17;0.60;;;;;;;23.45;75.71;99222.47;8305547;28;20045;-63
2023/08/03 13:07:49;;;;;;;1.45;0.45;;;;;;;23.38;75.09;99221.78;8309456;28;20128;-63
2023/08/03 13:11:50;;;;;;;5.72;0.65;;;;;;;23.17;76.18;99215.13;8309085;28;20407;-63
2023/08/03 13:15:51;;;;;;;6.15;0.82;;;;;;;23.05;77.32;99229.00;8309053;28;20046;-63
2023/08/03 13:19:51;;;;;;;5.40;1.10;;;;;;;23.49;78.37;99235.50;8305790;28;20088;-63
2023/08/03 13:23:52;;;;;;;4.15;0.80;;;;;;;23.59;76.05;99245.81;8308921;28;20136;-62
2023/08/03 13:27:52;;;;;;;2.53;0.47;;;;;;;23.17;74.58;99242.69;8307277;28;20127;-62
2023/08/03 13:31:54;;;;;;;5.20;0.88;;;;;;;23.69;74.77;99248.75;8303089;28;20558;-62
2023/08/03 13:35:54;;;;;;;2.20;0.65;;;;;;;24.00;74.20;99265.44;8307833;28;20052;-62
2023/08/03 13:39:55;;;;;;;2.97;0.75;;;;;;;23.84;75.19;99254.44;8307640;28;20359;-62
2023/08/03 13:43:55;;;;;;;9.65;1.17;;;;;;;23.70;73.92;99270.56;8325157;28;20056;-59
2023/08/03 13:47:55;;;;;;;1580.30;239.82;;;;;;;23.38;75.76;99299.03;8293262;28;20124;-59
2023/08/03 13:51:56;;;;;;;5.43;1.05;;;;;;;23.15;78.91;99311.88;8297706;28;20414;-59
2023/08/03 13:55:58;;;;;;;1.98;0.57;;;;;;;22.69;79.05;99317.69;8305878;28;20041;-59
2023/08/03 13:59:58;;;;;;;5.35;0.70;;;;;;;22.27;82.78;99316.31;8306334;28;20406;-59
2023/08/03 14:03:58;;;;;;;2.90;0.88;;;;;;;22.07;85.55;99321.41;8302908;28;20060;-59
2023/08/03 14:07:59;;;;;;;1.23;0.75;;;;;;;22.05;83.26;99331.81;8303644;28;20065;-58
2023/08/03 14:12:00;;;;;;;1.25;0.40;;;;;;;22.03;80.80;99345.00;8305901;28;20120;-59
2023/08/03 14:16:01;;;;;;;1.23;0.50;;;;;;;21.62;83.61;99356.13;8306977;28;20125;-59
2023/08/03 14:20:04;;;;;;;1.27;0.40;;;;;;;21.57;84.70;99383.53;8302552;28;20057;-59
2023/08/03 14:24:04;;;;;;;93.25;11.43;;;;;;;21.22;96.99;99390.91;8307478;28;20117;-58
2023/08/03 14:28:05;;;;;;;70.50;7.60;;;;;;;21.01;98.14;99399.69;8299273;28;20047;-59
2023/08/03 14:32:08;;;;;;;220.25;22.60;;;;;;;20.88;100.00;99408.09;8302971;28;20203;-59
2023/08/03 14:36:10;;;;;;;306.52;34.17;;;;;;;20.65;100.00;99416.25;8306049;28;20053;-59
2023/08/03 14:40:10;;;;;;;190.68;16.83;;;;;;;20.43;100.00;99418.66;8305030;28;20040;-59
2023/08/03 14:44:11;;;;;;;234.00;20.55;;;;;;;20.34;100.00;99430.19;8302942;28;20065;-58
2023/08/03 14:48:11;;;;;;;230.00;24.65;;;;;;;20.33;100.00;99418.38;8304697;28;20069;-59
2023/08/03 14:52:12;;;;;;;1.38;0.80;;;;;;;20.46;100.00;99439.34;8298436;28;20053;-58
2023/08/03 14:56:12;;;;;;;1.15;0.60;;;;;;;20.47;100.00;99435.50;8304667;28;20452;-57
2023/08/03 15:00:13;;;;;;;3.42;0.65;;;;;;;20.56;100.00;99436.88;8303528;28;20041;-57
2023/08/03 15:04:13;;;;;;;2.78;0.50;;;;;;;20.90;100.00;99431.56;8304680;28;20077;-58
2023/08/03 15:08:16;;;;;;;1.80;0.60;;;;;;;21.19;100.00;99443.59;8302700;28;20125;-59
2023/08/03 15:12:16;;;;;;;0.68;0.50;;;;;;;21.31;99.50;99430.72;8304646;28;20462;-58
2023/08/03 15:16:19;;;;;;;2.75;0.60;;;;;;;21.54;95.66;99441.78;8304774;28;20183;-58
2023/08/03 15:20:20;;;;;;;1.77;0.70;;;;;;;21.61;92.71;99461.75;8300365;28;20038;-57
2023/08/03 15:24:20;;;;;;;2.53;1.20;;;;;;;21.66;91.00;99461.88;8309395;28;20361;-57
2023/08/03 15:28:21;;;;;;;3.45;0.70;;;;;;;21.74;90.96;99469.00;8306196;28;20100;-58
2023/08/03 15:32:22;;;;;;;0.82;0.50;;;;;;;21.45;89.63;99483.59;8293590;28;20042;-57
2023/08/03 15:36:34;;;;;;;3.25;0.70;;;;;;;21.11;91.37;99487.94;8300466;28;20116;-57
2023/08/03 15:40:35;;;;;;;6.82;1.20;;;;;;;20.51;100.00;99498.00;8302383;28;20289;-57
2023/08/03 15:44:35;;;;;;;3.45;1.17;;;;;;;19.81;100.00;99494.88;8301027;28;20087;-58
2023/08/03 15:48:36;;;;;;;2.97;1.00;;;;;;;19.54;100.00;99499.75;8303010;28;20042;-59
2023/08/03 15:52:36;;;;;;;4.38;1.38;;;;;;;19.25;100.00;99509.41;8304471;28;20800;-59
2023/08/03 15:56:38;;;;;;;7.60;1.83;;;;;;;18.95;100.00;99513.81;8308837;28;20450;-58
2023/08/03 16:00:38;;;;;;;5.97;1.45;;;;;;;18.87;100.00;99514.06;8304560;28;20033;-58
2023/08/03 16:04:39;;;;;;;8.68;2.05;;;;;;;18.88;100.00;99523.13;8308402;28;20056;-62
2023/08/03 16:08:41;;;;;;;3.38;1.02;;;;;;;18.54;100.00;99540.72;8308051;28;20487;-61
2023/08/03 16:12:42;;;;;;;4.80;1.20;;;;;;;18.30;100.00;99541.38;8307120;28;20045;-62
2023/08/03 16:16:43;;;;;;;2.53;0.80;;;;;;;18.17;100.00;99538.69;8307016;28;20124;-61
2023/08/03 16:20:43;;;;;;;4.28;1.35;;;;;;;18.27;100.00;99539.06;8304129;28;20103;-62
2023/08/03 16:24:43;;;;;;;3.92;1.23;;;;;;;18.38;100.00;99541.19;8309528;28;20415;-61
2023/08/03 16:28:44;;;;;;;4.22;1.20;;;;;;;18.52;100.00;99548.34;8306403;28;20046;-61
2023/08/03 16:32:45;;;;;;;6.68;1.33;;;;;;;18.68;100.00;99553.34;8304697;28;20611;-61
2023/08/03 16:36:45;;;;;;;2.72;1.52;;;;;;;18.77;100.00;99552.03;8304411;28;20111;-60
2023/08/03 16:40:46;;;;;;;11.15;1.40;;;;;;;18.85;100.00;99556.44;8303511;28;20062;-61
2023/08/03 16:44:46;;;;;;;2.47;1.20;;;;;;;18.98;100.00;99557.22;8273013;28;20116;-61
2023/08/03 16:48:46;;;;;;;4.25;1.30;;;;;;;19.16;100.00;99557.31;8267002;28;20060;-62
2023/08/03 16:52:47;;;;;;;3.08;1.10;;;;;;;19.30;100.00;99571.81;8266087;28;20033;-61
2023/08/03 16:56:48;;;;;;;3.38;1.30;;;;;;;19.38;100.00;99569.69;8266366;28;20607;-61
2023/08/03 17:00:50;;;;;;;2.42;1.40;;;;;;;19.45;100.00;99575.94;8272163;28;20065;-61
2023/08/03 17:04:51;;;;;;;6.30;1.70;;;;;;;19.43;100.00;99580.81;8266109;28;20041;-58
2023/08/03 17:08:52;;;;;;;7.53;2.17;;;;;;;19.49;100.00;99596.38;8270829;28;20042;-58
2023/08/03 17:12:52;;;;;;;4.38;1.55;;;;;;;19.59;100.00;99589.56;8290884;28;20041;-57
2023/08/03 17:16:53;;;;;;;7.28;2.10;;;;;;;19.54;100.00;99597.63;8299605;28;20458;-58
2023/08/03 17:20:53;;;;;;;4.05;1.85;;;;;;;19.61;100.00;99614.88;8303214;28;20041;-58
2023/08/03 17:24:54;;;;;;;3.10;1.80;;;;;;;19.61;100.00;99612.13;8298169;28;20057;-57
2023/08/03 17:28:54;;;;;;;8.43;2.33;;;;;;;19.74;100.00;99614.78;8306159;28;20408;-58
2023/08/03 17:32:55;;;;;;;3.97;1.52;;;;;;;19.79;100.00;99623.22;8301576;28;20156;-57
2023/08/03 17:36:56;;;;;;;4.53;1.70;;;;;;;19.78;100.00;99621.50;8305350;28;20136;-58
2023/08/03 17:40:57;;;;;;;3.00;1.50;;;;;;;19.73;100.00;99626.84;8304679;28;20045;-57
2023/08/03 17:44:58;;;;;;;3.88;1.77;;;;;;;19.70;100.00;99630.03;8303475;28;20512;-57
2023/08/03 17:48:59;;;;;;;2.38;1.65;;;;;;;19.66;100.00;99640.56;8307707;28;20046;-58
2023/08/03 17:52:59;;;;;;;4.13;1.90;;;;;;;19.67;100.00;99646.91;8306335;28;20061;-56
2023/08/03 17:57:00;;;;;;;7.70;1.70;;;;;;;19.70;100.00;99651.97;8305489;28;20064;-57
2023/08/03 18:01:10;;;;;;;5.72;2.05;;;;;;;19.76;100.00;99656.56;8305920;28;20042;-58
2023/08/03 18:05:12;;;;;;;5.72;1.95;;;;;;;19.75;100.00;99665.84;8304516;28;20128;-57
2023/08/03 18:09:12;;;;;;;3.92;1.88;;;;;;;19.64;100.00;99669.28;8305146;28;20405;-57
2023/08/03 18:13:13;;;;;;;4.22;1.65;;;;;;;19.58;100.00;99672.91;8304477;28;20219;-58
2023/08/03 18:17:15;;;;;;;5.95;2.17;;;;;;;19.45;100.00;99688.38;8306359;28;20046;-58
2023/08/03 18:21:20;;;;;;;7.72;2.53;;;;;;;19.43;100.00;99701.44;8302818;28;20038;-58
2023/08/03 18:25:21;;;;;;;11.20;2.58;;;;;;;19.40;100.00;99690.91;8308299;28;20042;-57
2023/08/03 18:29:21;;;;;;;4.57;2.33;;;;;;;19.27;100.00;99701.94;8304875;28;20040;-57
2023/08/03 18:33:21;;;;;;;6.80;2.45;;;;;;;19.30;100.00;99695.16;8304080;28;20112;-57
2023/08/03 18:37:22;;;;;;;5.97;2.10;;;;;;;19.32;100.00;99688.44;8304328;28;20273;-58
2023/08/03 18:41:23;;;;;;;6.05;2.00;;;;;;;19.33;100.00;99701.06;8304504;28;20034;-57
2023/08/03 18:45:25;;;;;;;8.02;2.90;;;;;;;19.33;100.00;99695.56;8303869;28;20128;-60
2023/08/03 18:49:25;;;;;;;5.38;1.80;;;;;;;19.30;100.00;99706.97;8301873;28;20057;-58